Time;durP1;ratioP1;P1;durP2;ratioP2;P2;SDS_P1;SDS_P2;PMS_P1;PMS_P2;Temp;Humidity;BMP_temperature;BMP_pressure;BME280_temperature;BME280_humidity;BME280_pressure;Samples;Min_cycle;Max_cycle;Signal;HPM_P1;HPM_P2
2020/12/31 00:00:19;;;;;;;46.00;24.13;;;;;;;5.58;73.57;98068.00;119769;1151;104492;-69
2020/12/31 00:03:02;;;;;;;40.03;21.53;;;;;;;5.60;73.68;98071.38;120114;1151;104920;-70
2020/12/31 00:05:29;;;;;;;39.27;22.27;;;;;;;5.59;74.03;98070.52;120757;1149;104459;-71
2020/12/31 00:07:56;;;;;;;39.13;18.60;;;;;;;5.55;73.83;98071.67;119840;1151;104500;-70
2020/12/31 00:10:24;;;;;;;38.83;19.93;;;;;;;5.52;73.23;98071.88;119829;1151;104500;-71
2020/12/31 00:12:50;;;;;;;38.90;20.57;;;;;;;5.54;73.85;98083.17;119794;1153;104447;-71
2020/12/31 00:15:17;;;;;;;41.60;21.90;;;;;;;5.55;73.76;98071.67;119803;1151;104499;-70
2020/12/31 00:17:44;;;;;;;37.17;17.73;;;;;;;5.57;73.81;98074.22;119746;1151;104461;-69
2020/12/31 00:20:11;;;;;;;36.27;19.47;;;;;;;5.58;73.86;98073.28;120112;1151;104351;-69
2020/12/31 00:22:38;;;;;;;36.90;19.53;;;;;;;5.59;73.53;98075.80;119800;1151;104525;-71
2020/12/31 00:25:10;;;;;;;36.33;19.70;;;;;;;5.57;73.96;98075.05;119805;1151;104417;-68
2020/12/31 00:27:37;;;;;;;38.97;20.97;;;;;;;5.57;73.73;98077.69;119758;1151;104977;-70
2020/12/31 00:30:11;;;;;;;40.53;22.60;;;;;;;5.55;73.74;98081.40;119763;1151;104444;-70
2020/12/31 00:32:38;;;;;;;39.03;20.85;;;;;;;5.54;73.78;98085.81;120187;1150;104445;-70
2020/12/31 00:35:06;;;;;;;42.98;24.00;;;;;;;5.53;73.64;98076.20;119695;1151;104538;-69
2020/12/31 00:37:35;;;;;;;42.00;22.10;;;;;;;5.46;73.36;98070.52;120800;1151;104367;-71
2020/12/31 00:40:05;;;;;;;41.93;22.07;;;;;;;5.44;73.58;98079.49;119746;1151;104452;-69
2020/12/31 00:42:33;;;;;;;39.27;21.07;;;;;;;5.47;73.85;98076.66;119849;1151;104428;-71
2020/12/31 00:45:00;;;;;;;41.37;22.70;;;;;;;5.48;73.92;98073.06;119979;1151;104462;-70
2020/12/31 00:47:27;;;;;;;43.30;22.97;;;;;;;5.49;73.69;98072.95;119901;1151;104783;-69
2020/12/31 00:49:54;;;;;;;44.53;23.03;;;;;;;5.50;74.05;98081.72;119909;1151;104531;-69
2020/12/31 00:52:21;;;;;;;43.30;23.85;;;;;;;5.50;73.56;98085.19;119859;1151;104455;-71
2020/12/31 00:54:48;;;;;;;56.85;35.65;;;;;;;5.42;73.17;98091.94;120007;1151;104401;-71
2020/12/31 00:57:15;;;;;;;75.80;44.65;;;;;;;5.24;73.27;98101.92;120762;1151;101944;-70
2020/12/31 00:59:42;;;;;;;85.97;48.90;;;;;;;5.02;73.37;98112.09;119895;1151;104372;-70
2020/12/31 01:02:12;;;;;;;77.33;46.60;;;;;;;4.95;73.46;98113.44;119828;1151;104356;-70
2020/12/31 01:04:39;;;;;;;83.05;45.90;;;;;;;4.90;73.51;98108.44;119930;1151;104429;-70
2020/12/31 01:07:07;;;;;;;69.70;40.70;;;;;;;4.90;73.50;98108.44;120458;1151;104464;-69
2020/12/31 01:09:34;;;;;;;68.93;41.33;;;;;;;4.90;73.74;98112.88;119669;1151;105144;-71
2020/12/31 01:12:03;;;;;;;73.20;42.27;;;;;;;4.83;73.45;98109.81;119625;1151;104469;-71
2020/12/31 01:14:30;;;;;;;69.25;39.85;;;;;;;4.76;73.42;98119.05;120681;1151;104455;-71
2020/12/31 01:16:57;;;;;;;69.47;40.20;;;;;;;4.65;73.22;98119.73;119659;1151;104465;-70
2020/12/31 01:19:24;;;;;;;68.60;39.40;;;;;;;4.47;73.24;98121.75;119886;1151;104348;-69
2020/12/31 01:21:50;;;;;;;74.73;41.70;;;;;;;4.32;73.50;98120.89;119750;1151;104530;-69
2020/12/31 01:24:18;;;;;;;73.33;41.77;;;;;;;4.17;73.25;98130.59;120090;1151;104361;-70
2020/12/31 01:26:48;;;;;;;71.47;42.57;;;;;;;4.05;73.32;98129.56;119890;1151;104847;-69
2020/12/31 01:29:17;;;;;;;64.77;38.73;;;;;;;4.02;73.80;98133.24;119848;1151;104426;-70
2020/12/31 01:31:48;;;;;;;69.93;42.27;;;;;;;3.99;73.71;98141.33;119817;1151;104383;-67
2020/12/31 01:34:15;;;;;;;73.67;39.80;;;;;;;4.00;74.30;98144.78;120102;1151;104514;-70
2020/12/31 01:36:44;;;;;;;73.93;43.70;;;;;;;4.06;74.27;98147.05;120028;1151;104359;-70
2020/12/31 01:39:11;;;;;;;67.63;40.00;;;;;;;4.13;74.23;98145.74;120019;1151;104426;-69
2020/12/31 01:41:38;;;;;;;72.35;42.50;;;;;;;4.21;74.09;98153.16;121075;1151;104356;-72
2020/12/31 01:44:10;;;;;;;70.10;41.13;;;;;;;4.29;74.50;98144.78;120688;1151;104482;-70
2020/12/31 01:46:40;;;;;;;69.73;41.10;;;;;;;4.38;74.19;98143.39;119926;1151;104566;-69
2020/12/31 01:49:14;;;;;;;62.53;38.13;;;;;;;4.42;74.25;98148.36;119845;1151;104529;-70
2020/12/31 01:51:45;;;;;;;61.50;36.97;;;;;;;4.47;74.29;98146.28;119962;1151;104474;-70
2020/12/31 01:54:18;;;;;;;66.03;39.73;;;;;;;4.51;74.24;98144.29;119833;1151;104456;-71
2020/12/31 01:56:49;;;;;;;61.73;37.63;;;;;;;4.56;74.01;98142.22;119936;1151;104461;-71
2020/12/31 01:59:17;;;;;;;64.67;38.23;;;;;;;4.62;74.28;98141.00;120433;1151;104426;-68
2020/12/31 02:01:48;;;;;;;65.63;38.50;;;;;;;4.67;74.26;98138.93;119886;1151;104349;-71
2020/12/31 02:04:16;;;;;;;60.87;36.40;;;;;;;4.73;74.17;98135.05;119812;1151;104426;-71
2020/12/31 02:06:44;;;;;;;61.20;35.63;;;;;;;4.77;74.44;98134.73;120302;1151;104457;-70
2020/12/31 02:09:12;;;;;;;65.83;35.33;;;;;;;4.81;74.44;98138.05;121050;1151;103389;-70
2020/12/31 02:11:40;;;;;;;57.17;32.97;;;;;;;4.84;74.19;98129.08;120251;1151;104383;-69
2020/12/31 02:14:08;;;;;;;58.07;33.47;;;;;;;4.85;74.25;98136.05;120083;1151;104352;-70
2020/12/31 02:16:39;;;;;;;58.10;34.30;;;;;;;4.87;74.35;98139.42;119848;1151;104373;-71
2020/12/31 02:19:08;;;;;;;55.97;33.40;;;;;;;4.89;74.14;98148.08;120008;1151;104396;-67
2020/12/31 02:21:38;;;;;;;60.35;35.20;;;;;;;4.88;74.19;98139.34;120711;1151;104348;-70
2020/12/31 02:24:09;;;;;;;60.30;34.47;;;;;;;4.89;74.12;98138.38;120290;1151;104611;-70
2020/12/31 02:26:39;;;;;;;55.57;32.33;;;;;;;4.89;74.10;98141.00;119884;1151;104450;-70
2020/12/31 02:29:09;;;;;;;54.37;32.57;;;;;;;4.88;74.20;98141.13;119915;1151;104368;-70
2020/12/31 02:31:38;;;;;;;57.63;34.17;;;;;;;4.89;74.20;98137.54;119938;1151;104435;-70
2020/12/31 02:34:08;;;;;;;55.30;32.27;;;;;;;4.89;74.11;98138.38;120682;1151;103319;-69
2020/12/31 02:36:39;;;;;;;54.67;31.93;;;;;;;4.85;74.16;98125.50;119828;1151;104435;-70
2020/12/31 02:39:13;;;;;;;59.47;32.87;;;;;;;4.86;74.04;98138.59;119902;1153;104383;-69
2020/12/31 02:41:42;;;;;;;57.07;31.47;;;;;;;4.84;74.27;98132.58;122274;1151;101887;-69
2020/12/31 02:44:13;;;;;;;55.17;31.93;;;;;;;4.83;74.15;98140.56;120215;1151;104404;-69
2020/12/31 02:46:43;;;;;;;57.50;32.23;;;;;;;4.78;73.98;98135.60;119986;1151;104576;-69
2020/12/31 02:49:10;;;;;;;57.13;30.00;;;;;;;4.71;74.18;98134.30;119918;1151;104474;-70
2020/12/31 02:51:39;;;;;;;52.53;30.00;;;;;;;4.72;74.10;98136.82;119791;1151;104393;-69
2020/12/31 02:54:07;;;;;;;53.17;31.73;;;;;;;4.72;74.09;98135.98;119916;1151;104504;-68
2020/12/31 02:56:34;;;;;;;55.20;32.25;;;;;;;4.73;74.23;98137.69;119965;1151;104570;-71
2020/12/31 02:59:01;;;;;;;57.87;34.43;;;;;;;4.75;74.22;98133.16;120119;1151;104455;-70
2020/12/31 03:01:28;;;;;;;55.48;32.25;;;;;;;4.73;74.44;98132.41;120016;1151;104583;-69
2020/12/31 03:03:55;;;;;;;56.77;34.37;;;;;;;4.73;74.29;98135.05;119953;1153;104420;-68
2020/12/31 03:06:25;;;;;;;58.95;35.20;;;;;;;4.71;74.09;98135.13;119857;1151;104449;-69
2020/12/31 03:08:52;;;;;;;59.60;33.87;;;;;;;4.71;74.27;98134.30;119876;1151;104368;-70
2020/12/31 03:11:21;;;;;;;51.93;30.00;;;;;;;4.70;74.49;98129.97;119849;1153;104380;-68
2020/12/31 03:13:52;;;;;;;58.17;33.87;;;;;;;4.71;74.27;98131.66;121450;1151;103559;-70
2020/12/31 03:16:22;;;;;;;58.00;33.87;;;;;;;4.70;74.58;98127.34;120005;1151;104375;-71
2020/12/31 03:18:49;;;;;;;56.60;33.70;;;;;;;4.70;74.13;98132.61;120082;1151;104468;-71
2020/12/31 03:21:16;;;;;;;58.57;35.67;;;;;;;4.70;74.51;98141.34;120942;1151;102525;-68
2020/12/31 03:23:43;;;;;;;59.53;34.87;;;;;;;4.68;74.56;98129.22;120177;1151;104454;-70
2020/12/31 03:26:10;;;;;;;57.27;34.10;;;;;;;4.69;74.55;98141.45;119857;1151;104456;-71
2020/12/31 03:28:39;;;;;;;63.40;36.83;;;;;;;4.68;74.25;98137.12;120888;1151;104454;-70
2020/12/31 03:31:07;;;;;;;61.30;35.47;;;;;;;4.69;74.36;98130.91;120482;1151;104351;-70
2020/12/31 03:33:34;;;;;;;58.10;35.23;;;;;;;4.70;74.57;98136.07;119857;1151;104451;-70
2020/12/31 03:36:04;;;;;;;58.57;33.80;;;;;;;4.68;74.51;98137.98;119883;1151;104481;-70
2020/12/31 03:38:30;;;;;;;60.60;36.77;;;;;;;4.67;73.96;98138.93;119959;1151;104540;-69
2020/12/31 03:40:58;;;;;;;54.70;34.23;;;;;;;4.66;74.42;98129.33;119841;1151;104412;-68
2020/12/31 03:43:24;;;;;;;56.77;33.05;;;;;;;4.64;74.21;98133.85;119853;1150;104430;-71
2020/12/31 03:45:51;;;;;;;58.37;35.23;;;;;;;4.64;74.20;98139.13;119953;1151;104462;-71
2020/12/31 03:48:18;;;;;;;64.20;37.40;;;;;;;4.64;74.34;98141.75;119960;1151;104386;-69
2020/12/31 03:50:46;;;;;;;60.00;38.53;;;;;;;4.64;74.42;98146.16;119839;1151;104452;-67
2020/12/31 03:53:13;;;;;;;58.30;34.30;;;;;;;4.62;74.25;98148.91;119852;1151;104447;-68
2020/12/31 03:55:40;;;;;;;60.23;36.13;;;;;;;4.60;74.46;98150.79;119832;1151;104505;-67
2020/12/31 03:58:06;;;;;;;73.70;42.85;;;;;;;4.59;74.18;98149.09;119919;1151;104470;-67
2020/12/31 04:00:33;;;;;;;68.70;41.17;;;;;;;4.59;74.19;98154.36;120631;1151;104378;-72
2020/12/31 04:03:00;;;;;;;66.93;42.47;;;;;;;4.57;74.45;98154.45;120678;1150;104500;-68
2020/12/31 04:05:27;;;;;;;70.67;42.00;;;;;;;4.58;74.50;98156.14;119971;1151;104506;-67
2020/12/31 04:07:54;;;;;;;61.77;37.33;;;;;;;4.56;74.49;98163.28;120035;1153;105028;-70
2020/12/31 04:10:27;;;;;;;62.83;38.37;;;;;;;4.47;74.21;98166.52;120317;1151;104628;-69
2020/12/31 04:12:54;;;;;;;69.55;41.92;;;;;;;4.37;74.34;98158.32;119954;1151;104477;-69
2020/12/31 04:15:21;;;;;;;69.60;43.10;;;;;;;4.35;74.22;98162.84;119802;1151;104349;-69
2020/12/31 04:17:48;;;;;;;66.10;41.80;;;;;;;4.39;74.57;98166.14;119864;1153;104457;-69
2020/12/31 04:20:15;;;;;;;69.73;42.53;;;;;;;4.42;74.78;98156.25;119829;1151;104455;-70
2020/12/31 04:22:45;;;;;;;59.43;38.10;;;;;;;4.45;74.76;98158.70;119986;1151;104874;-70
2020/12/31 04:25:12;;;;;;;66.30;40.67;;;;;;;4.49;74.64;98155.87;120710;1151;104497;-69
2020/12/31 04:27:39;;;;;;;71.05;42.65;;;;;;;4.49;74.59;98154.07;119815;1151;104490;-68
2020/12/31 04:30:06;;;;;;;69.60;42.13;;;;;;;4.51;74.89;98148.73;119850;1153;104502;-67
2020/12/31 04:32:33;;;;;;;65.73;40.83;;;;;;;4.54;74.68;98161.70;119972;1151;104852;-69
2020/12/31 04:35:00;;;;;;;70.60;42.75;;;;;;;4.54;74.49;98153.80;119813;1151;104453;-66
2020/12/31 04:37:30;;;;;;;64.37;40.37;;;;;;;4.54;74.54;98156.44;119941;1151;104438;-69
2020/12/31 04:39:57;;;;;;;64.60;38.27;;;;;;;4.57;74.56;98157.08;120645;1151;104561;-69
2020/12/31 04:42:36;;;;;;;64.57;38.37;;;;;;;4.60;74.86;98156.06;119870;1151;104585;-66
2020/12/31 04:45:05;;;;;;;65.73;41.30;;;;;;;4.61;74.49;98152.48;120253;1150;104451;-70
2020/12/31 04:47:45;;;;;;;66.50;41.70;;;;;;;4.61;74.99;98155.95;120037;1151;104513;-70
2020/12/31 04:50:17;;;;;;;73.37;44.97;;;;;;;4.64;74.40;98161.97;121018;1151;104346;-69
2020/12/31 04:52:48;;;;;;;71.53;41.43;;;;;;;4.62;74.59;98160.27;120251;1151;104359;-71
2020/12/31 04:55:21;;;;;;;78.63;47.60;;;;;;;4.58;74.59;98156.14;119885;1151;104420;-71
2020/12/31 04:57:48;;;;;;;76.72;46.33;;;;;;;4.58;74.66;98161.41;119810;1151;104450;-70
2020/12/31 05:00:16;;;;;;;78.13;47.10;;;;;;;4.56;74.35;98167.72;119850;1151;104513;-70
2020/12/31 05:02:52;;;;;;;75.67;44.33;;;;;;;4.54;74.78;98170.44;119905;1153;104464;-70
2020/12/31 05:05:20;;;;;;;71.20;39.43;;;;;;;4.54;74.69;98177.51;119882;1153;104378;-70
2020/12/31 05:07:51;;;;;;;71.90;42.77;;;;;;;4.54;74.90;98175.70;120160;1154;104528;-70
2020/12/31 05:10:18;;;;;;;71.97;42.97;;;;;;;4.54;74.86;98180.97;120107;1151;104426;-69
2020/12/31 05:12:45;;;;;;;76.33;43.50;;;;;;;4.57;74.50;98190.48;119903;1151;104627;-72
2020/12/31 05:15:12;;;;;;;76.90;45.17;;;;;;;4.57;74.89;98191.32;119820;1151;104462;-68
2020/12/31 05:17:39;;;;;;;73.10;44.33;;;;;;;4.60;74.98;98196.40;119832;1151;104455;-68
2020/12/31 05:20:17;;;;;;;72.95;42.05;;;;;;;4.61;74.61;98191.99;119816;1151;104379;-68
2020/12/31 05:22:44;;;;;;;71.03;40.87;;;;;;;4.59;74.39;98199.97;119966;1151;104481;-67
2020/12/31 05:25:10;;;;;;;72.53;41.25;;;;;;;4.60;74.86;98214.00;119816;1152;104529;-70
2020/12/31 05:27:37;;;;;;;68.83;40.17;;;;;;;4.61;74.91;98215.70;119991;1153;104452;-69
2020/12/31 05:30:09;;;;;;;70.73;39.87;;;;;;;4.60;74.77;98212.20;119909;1151;104383;-69
2020/12/31 05:32:40;;;;;;;69.45;41.05;;;;;;;4.65;75.06;98216.34;120007;1151;104426;-69
2020/12/31 05:35:16;;;;;;;69.10;39.30;;;;;;;4.62;74.67;98220.86;120233;1150;104477;-69
2020/12/31 05:37:45;;;;;;;76.87;45.37;;;;;;;4.65;74.91;98218.98;119931;1151;104503;-70
2020/12/31 05:40:14;;;;;;;75.93;43.47;;;;;;;4.63;74.67;98216.45;120144;1151;104472;-68
2020/12/31 05:42:43;;;;;;;76.07;46.37;;;;;;;4.66;74.63;98220.67;120004;1151;104356;-68
2020/12/31 05:45:15;;;;;;;77.70;43.10;;;;;;;4.68;75.12;98224.92;120437;1151;104383;-69
2020/12/31 05:47:43;;;;;;;69.95;41.77;;;;;;;4.68;74.72;98224.92;119893;1151;104430;-70
2020/12/31 05:50:29;;;;;;;75.67;44.30;;;;;;;4.69;75.05;98226.58;119888;1151;104385;-70
2020/12/31 05:52:56;;;;;;;72.90;42.67;;;;;;;4.70;74.76;98228.27;119938;1151;104352;-70
2020/12/31 05:55:28;;;;;;;80.10;46.67;;;;;;;4.71;74.92;98231.77;119831;1151;104467;-70
2020/12/31 05:57:57;;;;;;;82.03;46.70;;;;;;;4.71;74.78;98232.60;120041;1151;104894;-72
2020/12/31 06:00:31;;;;;;;79.30;46.03;;;;;;;4.73;74.76;98237.79;119879;1151;104413;-67
2020/12/31 06:03:01;;;;;;;79.62;49.35;;;;;;;4.74;74.84;98231.58;119993;1151;104357;-69
2020/12/31 06:05:30;;;;;;;80.17;47.13;;;;;;;4.75;74.97;98236.74;119923;1151;104396;-69
2020/12/31 06:07:59;;;;;;;79.40;47.40;;;;;;;4.76;75.04;98233.17;120567;1151;104693;-67
2020/12/31 06:10:30;;;;;;;78.90;46.60;;;;;;;4.77;74.96;98226.13;120353;1151;104400;-68
2020/12/31 06:12:59;;;;;;;80.63;47.23;;;;;;;4.79;75.07;98226.88;120017;1151;104457;-70
2020/12/31 06:15:33;;;;;;;90.43;51.80;;;;;;;4.77;75.04;98229.59;119990;1151;104452;-69
2020/12/31 06:18:04;;;;;;;83.55;49.65;;;;;;;4.75;74.74;98226.20;120034;1149;104390;-68
2020/12/31 06:20:37;;;;;;;83.53;50.57;;;;;;;4.77;74.99;98229.59;119881;1151;104379;-69
2020/12/31 06:23:14;;;;;;;86.42;54.40;;;;;;;4.77;74.96;98232.22;120053;1151;104540;-69
2020/12/31 06:25:48;;;;;;;94.77;55.03;;;;;;;4.77;74.75;98229.59;120004;1151;104352;-68
2020/12/31 06:28:20;;;;;;;89.37;53.13;;;;;;;4.78;74.95;98233.09;119975;1151;104412;-68
2020/12/31 06:30:52;;;;;;;97.67;57.80;;;;;;;4.77;74.86;98232.22;120048;1151;104942;-69
2020/12/31 06:33:30;;;;;;;99.10;59.10;;;;;;;4.77;75.09;98234.86;120066;1151;104464;-69
2020/12/31 06:36:02;;;;;;;96.17;55.93;;;;;;;4.78;74.90;98230.45;119818;1151;104441;-68
2020/12/31 06:38:38;;;;;;;95.27;56.37;;;;;;;4.76;75.19;98234.97;119846;1151;104380;-70
2020/12/31 06:41:40;;;;;;;97.97;56.23;;;;;;;4.74;75.34;98240.31;120268;1151;104382;-69
2020/12/31 06:44:16;;;;;;;99.35;56.65;;;;;;;4.73;75.04;98235.16;120907;1151;104464;-69
2020/12/31 06:46:47;;;;;;;;;;;;;;;4.71;75.04;98234.41;120092;1151;104356;-68
2020/12/31 06:49:18;;;;;;;99.43;53.50;;;;;;;4.70;74.73;98243.25;119942;1151;104455;-69
2020/12/31 06:51:45;;;;;;;92.43;52.90;;;;;;;4.69;74.77;98242.39;119954;1151;104419;-70
2020/12/31 06:54:12;;;;;;;93.10;53.55;;;;;;;4.69;74.67;98249.45;120623;1151;104372;-70
2020/12/31 06:56:48;;;;;;;94.80;53.87;;;;;;;4.68;75.17;98247.77;119823;1151;104359;-69
2020/12/31 06:59:25;;;;;;;92.47;52.70;;;;;;;4.66;75.15;98247.87;120043;1151;104458;-70
2020/12/31 07:01:55;;;;;;;107.60;56.33;;;;;;;4.64;75.14;98241.85;120115;1151;104455;-68
2020/12/31 07:04:27;;;;;;;97.70;53.70;;;;;;;4.64;74.74;98233.09;119779;1151;105154;-70
2020/12/31 07:06:54;;;;;;;102.83;51.53;;;;;;;4.60;74.81;98238.54;121970;1151;103880;-68
2020/12/31 07:09:33;;;;;;;104.70;56.17;;;;;;;4.55;74.91;98231.88;121484;1150;104524;-69
2020/12/31 07:12:07;;;;;;;107.57;56.00;;;;;;;4.52;75.05;98240.80;121851;1151;103546;-68
2020/12/31 07:14:36;;;;;;;107.80;58.10;;;;;;;4.50;75.08;98233.94;120012;1151;104495;-69
2020/12/31 07:17:08;;;;;;;103.10;53.53;;;;;;;4.49;74.86;98238.34;119993;1151;104503;-68
2020/12/31 07:19:36;;;;;;;109.93;53.00;;;;;;;4.49;75.14;98237.52;120098;1151;104448;-67
2020/12/31 07:22:11;;;;;;;106.40;50.37;;;;;;;4.45;75.04;98245.59;120021;1151;104426;-69
2020/12/31 07:24:47;;;;;;;100.07;49.77;;;;;;;4.45;75.10;98247.41;120019;1151;104526;-68
2020/12/31 07:27:27;;;;;;;107.07;54.20;;;;;;;4.46;75.14;98242.02;120011;1151;104441;-69
2020/12/31 07:30:09;;;;;;;96.90;51.27;;;;;;;4.46;75.14;98238.56;120060;1151;104455;-67
2020/12/31 07:33:00;;;;;;;103.10;49.40;;;;;;;4.46;75.25;98235.93;120059;1151;104615;-69
2020/12/31 07:35:42;;;;;;;99.80;48.47;;;;;;;4.45;74.89;98232.44;120011;1151;104380;-69
2020/12/31 07:38:18;;;;;;;105.60;47.60;;;;;;;4.43;74.86;98231.67;120025;1151;104383;-71
2020/12/31 07:40:53;;;;;;;107.50;47.13;;;;;;;4.39;75.04;98227.53;120075;1151;104458;-64
2020/12/31 07:43:25;;;;;;;115.30;51.13;;;;;;;4.35;74.96;98243.62;120042;1151;104443;-70
2020/12/31 07:46:01;;;;;;;97.00;48.70;;;;;;;4.30;75.08;98234.22;120014;1149;104582;-70
2020/12/31 07:48:30;;;;;;;99.55;47.60;;;;;;;4.30;75.03;98238.62;120022;1151;104465;-69
2020/12/31 07:51:02;;;;;;;95.33;47.13;;;;;;;4.30;75.10;98233.35;120097;1151;105978;-71
2020/12/31 07:53:29;;;;;;;89.13;46.03;;;;;;;4.32;75.23;98232.34;120014;1151;104435;-70
2020/12/31 07:55:58;;;;;;;95.37;45.43;;;;;;;4.34;75.49;98236.66;120065;1151;104367;-69
2020/12/31 07:58:29;;;;;;;86.63;42.83;;;;;;;4.32;75.36;98244.64;120032;1151;104375;-70
2020/12/31 08:01:05;;;;;;;87.00;43.55;;;;;;;4.28;75.19;98241.36;120049;1151;104360;-70
2020/12/31 08:03:33;;;;;;;78.57;41.23;;;;;;;4.27;75.39;98242.30;120111;1151;104372;-69
2020/12/31 08:06:06;;;;;;;86.73;41.27;;;;;;;4.29;75.51;98245.69;120070;1151;104500;-68
2020/12/31 08:08:34;;;;;;;83.17;42.57;;;;;;;4.32;75.50;98249.91;120120;1151;104415;-70
2020/12/31 08:11:09;;;;;;;75.43;40.50;;;;;;;4.30;75.28;98252.64;120127;1151;104545;-70
2020/12/31 08:13:37;;;;;;;84.20;42.27;;;;;;;4.30;75.51;98257.91;120025;1151;104355;-68
2020/12/31 08:16:06;;;;;;;71.00;39.07;;;;;;;4.33;75.44;98262.13;120075;1151;104457;-69
2020/12/31 08:18:33;;;;;;;74.07;39.93;;;;;;;4.37;75.44;98270.71;120024;1151;104374;-68
2020/12/31 08:21:05;;;;;;;79.53;39.93;;;;;;;4.38;75.35;98264.50;120056;1151;104429;-70
2020/12/31 08:23:39;;;;;;;75.53;39.23;;;;;;;4.40;75.35;98271.36;120065;1151;104508;-67
2020/12/31 08:26:09;;;;;;;74.60;38.93;;;;;;;4.44;75.43;98277.30;120089;1151;104505;-70
2020/12/31 08:28:37;;;;;;;76.23;40.17;;;;;;;4.45;75.32;98274.56;120031;1151;104522;-70
2020/12/31 08:31:17;;;;;;;74.10;39.77;;;;;;;4.47;75.42;98279.76;120061;1151;104394;-71
2020/12/31 08:33:44;;;;;;;80.43;40.23;;;;;;;4.48;75.60;98276.19;120063;1151;104570;-69
2020/12/31 08:36:22;;;;;;;83.17;41.10;;;;;;;4.50;75.50;98282.17;120062;1151;104636;-69
2020/12/31 08:38:51;;;;;;;80.90;39.15;;;;;;;4.51;75.33;98283.04;120018;1151;104351;-70
2020/12/31 08:41:19;;;;;;;80.37;40.07;;;;;;;4.53;75.63;98278.53;120049;1151;104348;-70
2020/12/31 08:43:46;;;;;;;84.53;42.83;;;;;;;4.58;75.47;98277.30;120001;1151;104394;-69
2020/12/31 08:46:20;;;;;;;82.47;42.43;;;;;;;4.61;75.39;98277.11;120058;1151;104358;-70
2020/12/31 08:48:56;;;;;;;80.40;41.15;;;;;;;4.65;75.44;98267.25;120071;1151;104509;-70
2020/12/31 08:51:29;;;;;;;85.07;41.80;;;;;;;4.67;75.62;98275.91;119981;1151;104485;-70
2020/12/31 08:53:58;;;;;;;84.35;42.00;;;;;;;4.72;75.22;98276.45;120045;1151;104426;-70
2020/12/31 08:56:32;;;;;;;80.10;41.70;;;;;;;4.74;75.58;98274.56;120046;1151;104352;-71
2020/12/31 08:59:17;;;;;;;93.10;49.60;;;;;;;4.76;75.42;98267.41;120043;1151;104367;-70
2020/12/31 09:01:46;;;;;;;99.17;53.67;;;;;;;4.81;75.42;98269.78;120046;1151;104425;-70
2020/12/31 09:04:18;;;;;;;93.60;47.33;;;;;;;4.86;75.53;98267.72;120001;1151;104516;-67
2020/12/31 09:06:57;;;;;;;78.23;40.97;;;;;;;4.89;75.48;98275.41;120049;1151;104449;-71
2020/12/31 09:09:26;;;;;;;82.27;43.43;;;;;;;4.91;75.46;98270.05;120047;1151;104426;-67
2020/12/31 09:12:01;;;;;;;78.67;39.87;;;;;;;4.96;75.62;98269.75;120079;1151;104496;-69
2020/12/31 09:14:30;;;;;;;80.07;43.13;;;;;;;5.00;75.64;98279.17;120040;1151;104490;-68
2020/12/31 09:16:57;;;;;;;73.87;40.50;;;;;;;5.03;75.49;98271.93;120002;1151;104381;-69
2020/12/31 09:19:25;;;;;;;77.90;43.37;;;;;;;5.06;75.39;98273.52;120071;1151;104462;-69
2020/12/31 09:21:52;;;;;;;92.87;48.27;;;;;;;5.08;75.55;98270.80;120049;1151;104863;-72
2020/12/31 09:24:23;;;;;;;100.20;50.37;;;;;;;5.10;75.60;98266.25;119863;1151;104377;-71
2020/12/31 09:26:58;;;;;;;95.07;49.50;;;;;;;5.12;75.49;98267.00;120069;1151;104471;-71
2020/12/31 09:29:30;;;;;;;97.00;51.57;;;;;;;5.13;75.32;98266.92;119981;1151;104447;-71
2020/12/31 09:31:58;;;;;;;95.90;51.30;;;;;;;5.16;75.65;98264.09;120066;1151;104386;-69
2020/12/31 09:34:24;;;;;;;101.50;53.23;;;;;;;5.19;75.74;98257.77;119993;1151;104452;-71
2020/12/31 09:37:00;;;;;;;105.97;55.73;;;;;;;5.20;75.46;98265.59;119977;1151;104361;-71
2020/12/31 09:39:27;;;;;;;109.03;58.23;;;;;;;5.24;75.69;98260.12;120040;1149;104511;-71
2020/12/31 09:41:54;;;;;;;108.93;59.57;;;;;;;5.26;75.79;98259.07;119966;1151;104508;-70
2020/12/31 09:44:21;;;;;;;106.50;60.55;;;;;;;5.28;75.65;98257.18;119914;1151;104454;-72
2020/12/31 09:46:50;;;;;;;108.93;60.43;;;;;;;5.29;75.47;98253.59;119949;1151;104451;-67
2020/12/31 09:49:17;;;;;;;99.75;55.55;;;;;;;5.32;75.71;98260.45;120060;1151;104393;-70
2020/12/31 09:51:46;;;;;;;94.27;48.57;;;;;;;5.35;75.78;98255.84;120006;1151;104571;-69
2020/12/31 09:54:13;;;;;;;90.03;45.90;;;;;;;5.36;75.51;98257.55;119994;1151;104482;-71
2020/12/31 09:56:39;;;;;;;90.33;48.67;;;;;;;5.40;75.54;98246.80;119888;1151;104377;-71
2020/12/31 09:59:06;;;;;;;84.70;45.25;;;;;;;5.46;75.88;98249.05;119966;1150;104428;-72
2020/12/31 10:01:35;;;;;;;79.30;42.57;;;;;;;5.47;75.78;98243.66;119757;1151;104478;-69
2020/12/31 10:04:02;;;;;;;69.17;39.07;;;;;;;5.46;75.83;98247.23;119648;1151;104505;-72
2020/12/31 10:06:30;;;;;;;63.25;36.17;;;;;;;5.45;75.43;98244.71;119954;1151;104353;-73
2020/12/31 10:08:57;;;;;;;66.93;36.10;;;;;;;5.45;75.55;98242.91;119776;1151;104528;-75
2020/12/31 10:11:24;;;;;;;69.60;38.73;;;;;;;5.46;75.82;98239.33;119945;1151;104377;-73
2020/12/31 10:13:51;;;;;;;74.15;41.60;;;;;;;5.47;75.61;98243.66;119340;1151;104359;-71
2020/12/31 10:16:18;;;;;;;73.80;41.95;;;;;;;5.46;75.23;98246.41;119821;1151;104426;-75
2020/12/31 10:18:45;;;;;;;83.03;44.03;;;;;;;5.45;75.34;98239.44;119973;1151;104385;-70
2020/12/31 10:21:15;;;;;;;78.83;42.70;;;;;;;5.45;75.53;98229.72;119963;1151;104470;-72
2020/12/31 10:23:43;;;;;;;77.13;42.90;;;;;;;5.44;75.62;98227.19;119774;1151;104497;-74
2020/12/31 10:26:10;;;;;;;80.17;44.23;;;;;;;5.43;75.44;98228.97;119900;1151;104348;-73
2020/12/31 10:28:37;;;;;;;88.07;44.73;;;;;;;5.44;75.61;98224.55;119820;1151;104354;-72
2020/12/31 10:31:04;;;;;;;86.00;45.87;;;;;;;5.41;75.65;98222.95;119852;1151;104353;-73
2020/12/31 10:33:31;;;;;;;85.80;45.83;;;;;;;5.42;75.66;98221.17;119860;1150;104362;-73
2020/12/31 10:35:59;;;;;;;80.80;44.10;;;;;;;5.43;75.56;98223.69;119843;1151;104492;-74
2020/12/31 10:38:26;;;;;;;79.10;44.00;;;;;;;5.43;75.93;98209.67;119787;1151;104377;-73
2020/12/31 10:40:53;;;;;;;85.43;44.07;;;;;;;5.41;75.68;98212.39;119746;1151;104453;-74
2020/12/31 10:43:20;;;;;;;84.35;44.05;;;;;;;5.40;75.30;98213.34;119922;1151;104354;-71
2020/12/31 10:45:47;;;;;;;86.57;46.70;;;;;;;5.39;75.51;98211.65;119794;1151;104427;-72
2020/12/31 10:48:14;;;;;;;84.00;47.20;;;;;;;5.39;75.29;98205.55;119786;1151;104511;-71
2020/12/31 10:50:41;;;;;;;82.90;44.10;;;;;;;5.40;75.51;98200.16;119776;1151;104574;-73
2020/12/31 10:53:08;;;;;;;77.15;43.35;;;;;;;5.41;75.49;98198.38;119819;1151;104964;-72
2020/12/31 10:55:35;;;;;;;82.80;44.20;;;;;;;5.40;75.78;98186.97;119571;1151;104914;-72
2020/12/31 10:58:04;;;;;;;88.93;46.87;;;;;;;5.41;75.42;98186.02;119640;1151;104458;-71
2020/12/31 11:00:31;;;;;;;88.45;49.65;;;;;;;5.39;75.53;98176.53;119847;1151;104458;-70
2020/12/31 11:02:58;;;;;;;95.40;53.97;;;;;;;5.38;75.60;98167.77;119669;1149;104495;-70
2020/12/31 11:05:25;;;;;;;97.10;53.77;;;;;;;5.41;75.70;98164.92;119930;1151;104377;-72
2020/12/31 11:07:52;;;;;;;91.20;50.80;;;;;;;5.42;75.65;98160.51;120004;1151;104443;-71
2020/12/31 11:10:19;;;;;;;82.47;45.50;;;;;;;5.43;75.47;98159.56;120092;1151;104476;-73
2020/12/31 11:12:46;;;;;;;83.27;46.87;;;;;;;5.44;75.75;98156.81;120032;1151;104867;-72
2020/12/31 11:15:13;;;;;;;71.20;41.60;;;;;;;5.46;75.67;98160.20;119981;1151;104861;-72
2020/12/31 11:17:40;;;;;;;67.83;38.43;;;;;;;5.46;75.63;98160.20;119969;1151;104493;-72
2020/12/31 11:20:07;;;;;;;70.27;38.40;;;;;;;5.48;75.02;98155.66;120038;1148;104532;-70